createdAt,value
2022-09-03T00:00:13.498Z,44.05
2022-09-03T00:02:45.773Z,44.22
2022-09-03T00:05:18.459Z,43.81
2022-09-03T00:07:55.707Z,44.34
2022-09-03T00:10:38.101Z,44.45
2022-09-03T00:13:08.653Z,44.42
2022-09-03T00:15:38.170Z,44.72
2022-09-03T00:18:10.121Z,44.96
2022-09-03T00:20:43.978Z,45.33
2022-09-03T00:23:19.566Z,44.81
2022-09-03T00:25:57.174Z,45.20
2022-09-03T00:28:30.219Z,44.99
2022-09-03T00:31:08.712Z,45.00
2022-09-03T00:33:38.805Z,44.75
2022-09-03T00:36:30.207Z,44.87
2022-09-03T00:38:59.387Z,44.68
2022-09-03T00:41:41.376Z,44.92
2022-09-03T00:44:27.131Z,45.04
2022-09-03T00:47:10.950Z,45.24
2022-09-03T00:49:59.504Z,45.57
2022-09-03T00:52:35.142Z,45.43
2022-09-03T00:55:29.041Z,44.98
2022-09-03T00:58:30.843Z,45.21
2022-09-03T01:00:58.318Z,45.64
2022-09-03T01:03:37.753Z,45.48
2022-09-03T01:06:42.310Z,45.63
2022-09-03T01:09:30.209Z,45.65
2022-09-03T01:12:02.845Z,45.82
2022-09-03T01:14:58.307Z,46.16
2022-09-03T01:17:42.899Z,46.12
2022-09-03T01:20:19.065Z,46.11
2022-09-03T01:23:04.650Z,45.96
2022-09-03T01:25:50.800Z,45.98
2022-09-03T01:28:44.129Z,46.14
2022-09-03T01:31:21.951Z,45.79
2022-09-03T01:34:16.045Z,45.71
2022-09-03T01:36:46.488Z,45.87
2022-09-03T01:39:40.033Z,45.78
2022-09-03T01:42:24.499Z,45.66
2022-09-03T01:45:07.866Z,45.97
2022-09-03T01:47:49.916Z,46.07
2022-09-03T01:50:40.649Z,46.15
2022-09-03T01:53:36.491Z,45.94
2022-09-03T01:56:38.027Z,46.29
2022-09-03T01:59:31.624Z,46.18
2022-09-03T02:02:10.435Z,46.18
2022-09-03T02:04:37.947Z,46.19
2022-09-03T02:07:05.986Z,46.42
2022-09-03T02:09:33.504Z,46.41
2022-09-03T02:12:15.501Z,46.37
2022-09-03T02:14:43.829Z,46.46
2022-09-03T02:17:12.404Z,46.52
2022-09-03T02:19:40.514Z,46.54
2022-09-03T02:22:08.046Z,46.78
2022-09-03T02:24:35.558Z,47.15
2022-09-03T02:27:03.151Z,47.01
2022-09-03T02:29:30.816Z,47.82
2022-09-03T02:31:59.216Z,47.20
2022-09-03T02:34:26.800Z,47.08
2022-09-03T02:36:54.494Z,47.41
2022-09-03T02:39:22.015Z,47.67
2022-09-03T02:41:56.567Z,47.48
2022-09-03T02:44:33.877Z,48.13
2022-09-03T02:47:05.241Z,47.73
2022-09-03T02:49:34.059Z,47.92
2022-09-03T02:52:06.358Z,48.09
2022-09-03T02:54:36.800Z,48.39
2022-09-03T02:57:04.460Z,48.50
2022-09-03T02:59:32.752Z,48.47
2022-09-03T03:02:01.031Z,48.54
2022-09-03T03:04:30.692Z,48.93
2022-09-03T03:06:58.203Z,49.19
2022-09-03T03:09:25.730Z,48.91
2022-09-03T03:11:55.395Z,49.24
2022-09-03T03:14:23.516Z,49.26
2022-09-03T03:16:52.416Z,49.35
2022-09-03T03:19:19.994Z,49.24
2022-09-03T03:21:47.460Z,49.30
2022-09-03T03:24:15.629Z,49.32
2022-09-03T03:26:43.234Z,49.48
2022-09-03T03:29:17.250Z,50.08
2022-09-03T03:31:45.043Z,50.25
2022-09-03T03:34:12.711Z,50.20
2022-09-03T03:36:40.315Z,49.99
2022-09-03T03:39:07.809Z,50.33
2022-09-03T03:41:38.938Z,50.43
2022-09-03T03:44:09.137Z,50.51
2022-09-03T03:46:39.576Z,50.55
2022-09-03T03:49:08.968Z,50.73
2022-09-03T03:51:38.012Z,50.45
2022-09-03T03:54:06.094Z,51.05
2022-09-03T03:56:34.628Z,50.91
2022-09-03T03:59:02.181Z,50.86
2022-09-03T04:01:29.967Z,51.02
2022-09-03T04:03:59.962Z,50.84
2022-09-03T04:06:29.182Z,51.06
2022-09-03T04:08:56.852Z,50.85
2022-09-03T04:11:25.201Z,51.07
2022-09-03T04:13:53.760Z,51.31
2022-09-03T04:16:27.405Z,50.64
2022-09-03T04:18:56.323Z,50.87
2022-09-03T04:21:29.054Z,51.09
2022-09-03T04:23:57.223Z,51.02
2022-09-03T04:26:27.586Z,50.96
2022-09-03T04:28:55.141Z,51.10
2022-09-03T04:31:23.250Z,51.27
2022-09-03T04:33:51.197Z,51.84
2022-09-03T04:36:24.166Z,51.69
2022-09-03T04:38:54.377Z,51.90
2022-09-03T04:41:25.845Z,51.68
2022-09-03T04:43:54.695Z,51.87
2022-09-03T04:46:25.942Z,51.65
2022-09-03T04:48:55.424Z,51.92
2022-09-03T04:51:27.181Z,51.84
2022-09-03T04:53:57.899Z,51.93
2022-09-03T04:56:27.713Z,51.72
2022-09-03T04:58:57.608Z,52.23
2022-09-03T05:01:27.588Z,51.91
2022-09-03T05:04:01.760Z,52.30
2022-09-03T05:06:30.895Z,52.28
2022-09-03T05:08:59.327Z,52.31
2022-09-03T05:11:28.393Z,52.55
2022-09-03T05:13:58.871Z,52.27
2022-09-03T05:16:28.320Z,52.53
2022-09-03T05:18:59.193Z,52.64
2022-09-03T05:21:28.462Z,52.50
2022-09-03T05:23:56.100Z,52.66
2022-09-03T05:26:30.271Z,52.31
2022-09-03T05:29:00.927Z,52.83
2022-09-03T05:31:31.917Z,52.93
2022-09-03T05:34:02.649Z,53.08
2022-09-03T05:36:32.690Z,53.29
2022-09-03T05:39:00.530Z,52.70
2022-09-03T05:41:29.871Z,52.87
2022-09-03T05:43:59.316Z,53.42
2022-09-03T05:46:31.699Z,53.28
2022-09-03T05:49:01.311Z,52.96
2022-09-03T05:51:29.738Z,53.00
2022-09-03T05:53:57.427Z,53.01
2022-09-03T05:56:27.306Z,53.08
2022-09-03T05:58:57.361Z,52.74
2022-09-03T06:01:30.902Z,52.70
2022-09-03T06:04:09.758Z,52.70
2022-09-03T06:06:40.112Z,52.56
2022-09-03T06:09:10.690Z,52.70
2022-09-03T06:11:39.972Z,52.58
2022-09-03T06:14:09.571Z,52.65
2022-09-03T06:16:39.830Z,52.86
2022-09-03T06:19:09.627Z,53.15
2022-09-03T06:21:40.050Z,52.48
2022-09-03T06:24:07.598Z,52.46
2022-09-03T06:26:35.073Z,52.12
2022-09-03T06:29:02.577Z,51.72
2022-09-03T06:31:32.821Z,51.88
2022-09-03T06:34:04.004Z,51.86
2022-09-03T06:36:31.978Z,51.16
2022-09-03T06:39:00.042Z,50.91
2022-09-03T06:41:31.742Z,51.23
2022-09-03T06:44:02.267Z,50.41
2022-09-03T06:46:31.475Z,49.91
2022-09-03T06:49:00.421Z,49.67
2022-09-03T06:51:30.176Z,49.75
2022-09-03T06:54:03.084Z,49.70
2022-09-03T06:56:37.339Z,49.17
2022-09-03T06:59:16.379Z,49.44
2022-09-03T07:01:46.326Z,49.26
2022-09-03T07:04:16.476Z,49.02
2022-09-03T07:06:45.248Z,48.32
2022-09-03T07:09:15.337Z,49.04
2022-09-03T07:11:47.391Z,48.99
2022-09-03T07:14:16.242Z,47.99
2022-09-03T07:16:43.832Z,47.53
2022-09-03T07:19:13.341Z,47.52
2022-09-03T07:21:46.746Z,47.37
2022-09-03T07:24:16.647Z,47.22
2022-09-03T07:26:46.387Z,47.13
2022-09-03T07:29:15.740Z,46.57
2022-09-03T07:31:44.797Z,46.14
2022-09-03T07:34:16.372Z,45.69
2022-09-03T07:36:48.719Z,45.42
2022-09-03T07:39:17.849Z,45.31
2022-09-03T07:41:46.679Z,45.43
2022-09-03T07:44:19.560Z,44.87
2022-09-03T07:46:48.173Z,44.29
2022-09-03T07:49:15.990Z,44.59
2022-09-03T07:51:43.653Z,43.35
2022-09-03T07:54:11.962Z,42.31
2022-09-03T07:56:41.399Z,42.36
2022-09-03T07:59:10.119Z,41.79
2022-09-03T08:01:39.160Z,41.41
2022-09-03T08:04:10.881Z,41.08
2022-09-03T08:06:39.419Z,41.44
2022-09-03T08:09:09.884Z,40.97
2022-09-03T08:11:39.565Z,41.27
2022-09-03T08:14:10.495Z,40.50
2022-09-03T08:16:41.919Z,40.19
2022-09-03T08:19:09.783Z,39.18
2022-09-03T08:21:37.650Z,39.95
2022-09-03T08:24:05.745Z,39.80
2022-09-03T08:26:46.193Z,39.88
2022-09-03T08:29:15.421Z,39.14
2022-09-03T08:31:43.818Z,39.20
2022-09-03T08:34:11.978Z,39.39
2022-09-03T08:36:42.652Z,38.79
2022-09-03T08:39:11.705Z,39.12
2022-09-03T08:41:55.200Z,38.72
2022-09-03T08:44:35.871Z,38.69
2022-09-03T08:47:27.512Z,38.08
2022-09-03T08:50:04.465Z,38.03
2022-09-03T08:52:58.526Z,38.01
2022-09-03T08:55:36.632Z,37.60
2022-09-03T08:58:07.894Z,36.73
2022-09-03T09:00:46.632Z,37.22
2022-09-03T09:03:51.842Z,35.97
2022-09-03T09:06:42.043Z,35.76
2022-09-03T09:09:32.633Z,33.98
2022-09-03T09:12:16.047Z,32.82
2022-09-03T09:15:35.413Z,32.45
2022-09-03T09:18:14.882Z,31.93
2022-09-03T09:20:51.676Z,32.58
2022-09-03T09:23:36.873Z,31.61
2022-09-03T09:26:11.150Z,31.54
2022-09-03T09:28:40.277Z,31.87
2022-09-03T09:31:15.439Z,31.77
2022-09-03T09:33:43.674Z,31.87
2022-09-03T09:36:15.484Z,31.92
2022-09-03T09:38:45.411Z,30.78
2022-09-03T09:41:20.151Z,30.08
2022-09-03T09:43:49.198Z,29.82
2022-09-03T09:46:22.283Z,29.29
2022-09-03T09:48:57.516Z,29.31
2022-09-03T09:51:32.669Z,28.84
2022-09-03T09:54:16.482Z,29.33
2022-09-03T09:56:44.583Z,28.67
2022-09-03T09:59:14.867Z,29.90
2022-09-03T10:01:44.833Z,30.14
2022-09-03T10:04:32.856Z,30.17
2022-09-03T10:07:06.730Z,29.51
2022-09-03T10:09:34.633Z,30.80
2022-09-03T10:12:08.002Z,31.03
2022-09-03T10:14:54.792Z,30.48
2022-09-03T10:17:36.881Z,29.41
2022-09-03T10:20:31.183Z,30.13
2022-09-03T10:23:04.387Z,29.71
2022-09-03T10:25:53.689Z,30.29
2022-09-03T10:28:26.819Z,29.54
2022-09-03T10:31:08.122Z,29.90
2022-09-03T10:33:44.444Z,29.12
2022-09-03T10:36:38.502Z,28.34
2022-09-03T10:39:15.009Z,28.41
2022-09-03T10:42:13.271Z,28.48
2022-09-03T10:44:42.111Z,30.08
2022-09-03T10:47:36.191Z,29.56
2022-09-03T10:50:17.427Z,28.45
2022-09-03T10:53:07.673Z,29.47
2022-09-03T10:56:07.036Z,29.92
2022-09-03T10:58:58.926Z,28.26
2022-09-03T11:01:44.130Z,28.96
2022-09-03T11:04:46.393Z,29.33
2022-09-03T11:07:15.367Z,29.89
2022-09-03T11:10:11.614Z,29.57
2022-09-03T11:12:47.745Z,28.84
2022-09-03T11:15:34.190Z,29.11
2022-09-03T11:18:16.034Z,29.05
2022-09-03T11:20:45.101Z,29.07
2022-09-03T11:23:15.194Z,28.39
2022-09-03T11:25:48.970Z,28.85
2022-09-03T11:28:33.283Z,28.91
2022-09-03T11:31:42.702Z,26.92
2022-09-03T11:34:23.290Z,27.34
2022-09-03T11:37:26.716Z,27.21
2022-09-03T11:40:08.869Z,27.06
2022-09-03T11:42:42.056Z,26.96
2022-09-03T11:45:39.182Z,26.37
2022-09-03T11:48:31.671Z,26.15
2022-09-03T11:50:59.169Z,25.64
2022-09-03T11:53:34.614Z,26.22
2022-09-03T11:56:18.606Z,25.76
2022-09-03T11:58:47.869Z,25.73
2022-09-03T12:01:18.129Z,25.38
2022-09-03T12:04:03.347Z,25.61
2022-09-03T12:06:56.778Z,25.93
2022-09-03T12:10:12.870Z,26.33
2022-09-03T12:13:24.256Z,25.35
2022-09-03T12:16:21.263Z,24.68
2022-09-03T12:18:52.894Z,24.07
2022-09-03T12:21:21.370Z,25.35
2022-09-03T12:23:51.405Z,25.05
2022-09-03T12:26:28.086Z,24.68
2022-09-03T12:29:00.206Z,24.93
2022-09-03T12:31:35.026Z,24.07
2022-09-03T12:34:16.776Z,25.35
2022-09-03T12:36:47.428Z,25.16
2022-09-03T12:39:17.930Z,24.92
2022-09-03T12:42:08.339Z,24.83
2022-09-03T12:44:35.817Z,25.58
2022-09-03T12:50:08.870Z,26.31
2022-09-03T12:53:02.430Z,25.59
2022-09-03T12:55:41.981Z,25.36
2022-09-03T12:58:21.712Z,25.98
2022-09-03T13:00:56.265Z,25.34
2022-09-03T13:03:34.413Z,25.67
2022-09-03T13:06:10.478Z,24.98
2022-09-03T13:08:50.485Z,24.73
2022-09-03T13:11:22.007Z,24.42
2022-09-03T13:14:05.839Z,24.56
2022-09-03T13:16:46.532Z,25.04
2022-09-03T13:19:26.796Z,24.55
2022-09-03T13:21:57.610Z,24.93
2022-09-03T13:24:40.549Z,26.21
2022-09-03T13:27:24.574Z,25.73
2022-09-03T13:30:23.143Z,26.11
2022-09-03T13:33:16.609Z,24.63
2022-09-03T13:36:10.082Z,25.12
2022-09-03T13:39:03.343Z,25.54
2022-09-03T13:41:46.005Z,25.99
2022-09-03T13:44:23.690Z,25.88
2022-09-03T13:47:02.109Z,26.30
2022-09-03T13:50:02.312Z,25.65
2022-09-03T13:52:42.991Z,25.46
2022-09-03T13:55:14.453Z,26.23
2022-09-03T13:57:56.355Z,25.91
2022-09-03T14:00:41.218Z,25.88
2022-09-03T14:03:17.982Z,26.09
2022-09-03T14:06:01.536Z,26.70
2022-09-03T14:08:55.422Z,27.38
2022-09-03T14:11:55.744Z,27.57
2022-09-03T14:14:38.317Z,27.20
2022-09-03T14:17:27.880Z,28.44
2022-09-03T14:20:04.929Z,28.19
2022-09-03T14:23:10.111Z,28.35
2022-09-03T14:25:42.795Z,27.91
2022-09-03T14:28:26.937Z,28.68
2022-09-03T14:31:18.406Z,28.75
2022-09-03T14:33:58.512Z,28.22
2022-09-03T14:37:05.197Z,27.98
2022-09-03T14:39:33.144Z,28.71
2022-09-03T14:42:07.949Z,28.88
2022-09-03T14:45:03.339Z,28.89
2022-09-03T14:47:55.878Z,28.85
2022-09-03T14:50:42.271Z,28.79
2022-09-03T14:53:34.655Z,29.18
2022-09-03T14:56:31.171Z,29.27
2022-09-03T14:59:20.481Z,29.60
2022-09-03T15:02:14.525Z,29.66
2022-09-03T15:04:44.797Z,29.76
2022-09-03T15:07:32.942Z,29.00
2022-09-03T15:10:00.890Z,29.27
2022-09-03T15:12:37.180Z,29.29
2022-09-03T15:15:31.827Z,29.06
2022-09-03T15:18:17.342Z,29.41
2022-09-03T15:20:54.066Z,29.38
2022-09-03T15:23:26.863Z,29.43
2022-09-03T15:26:33.433Z,29.33
2022-09-03T15:29:10.121Z,29.60
2022-09-03T15:32:08.054Z,29.72
2022-09-03T15:34:50.731Z,29.67
2022-09-03T15:37:28.622Z,29.96
2022-09-03T15:40:37.764Z,30.12
2022-09-03T15:43:16.788Z,29.68
2022-09-03T15:45:52.117Z,30.00
2022-09-03T15:48:39.246Z,29.63
2022-09-03T15:51:14.328Z,29.02
2022-09-03T15:54:03.418Z,29.77
2022-09-03T15:57:10.810Z,29.29
2022-09-03T15:59:53.571Z,29.75
2022-09-03T16:02:41.942Z,30.14
2022-09-03T16:05:20.397Z,29.82
2022-09-03T16:08:08.178Z,29.86
2022-09-03T16:11:03.080Z,29.94
2022-09-03T16:13:46.589Z,29.92
2022-09-03T16:16:22.394Z,29.81
2022-09-03T16:19:11.058Z,30.63
2022-09-03T16:21:45.453Z,30.91
2022-09-03T16:24:24.098Z,30.47
2022-09-03T16:27:12.317Z,30.23
2022-09-03T16:29:40.027Z,30.70
2022-09-03T16:32:31.966Z,30.47
2022-09-03T16:35:24.826Z,31.27
2022-09-03T16:38:14.731Z,31.71
2022-09-03T16:41:23.546Z,31.41
2022-09-03T16:44:17.800Z,31.73
2022-09-03T16:46:54.058Z,31.75
2022-09-03T16:49:49.253Z,31.46
2022-09-03T16:52:38.464Z,31.47
2022-09-03T16:55:22.219Z,31.59
2022-09-03T16:58:12.028Z,32.20
2022-09-03T17:01:03.147Z,31.98
2022-09-03T17:04:11.708Z,32.36
2022-09-03T17:06:39.815Z,32.47
2022-09-03T17:09:37.880Z,32.38
2022-09-03T17:12:16.604Z,32.03
2022-09-03T17:14:47.594Z,32.20
2022-09-03T17:17:28.774Z,32.50
2022-09-03T17:20:20.020Z,32.64
2022-09-03T17:22:53.510Z,32.76
2022-09-03T17:25:40.967Z,32.63
2022-09-03T17:28:25.538Z,33.40
2022-09-03T17:31:04.117Z,33.46
2022-09-03T17:33:50.180Z,33.33
2022-09-03T17:36:27.278Z,33.89
2022-09-03T17:39:12.910Z,33.33
2022-09-03T17:42:03.061Z,34.23
2022-09-03T17:44:57.957Z,33.97
2022-09-03T17:48:02.997Z,36.37
2022-09-03T17:50:44.714Z,35.09
2022-09-03T17:53:21.998Z,36.74
2022-09-03T17:56:01.422Z,35.82
2022-09-03T17:58:52.165Z,36.22
2022-09-03T18:01:27.478Z,36.74
2022-09-03T18:03:55.079Z,36.72
2022-09-03T18:06:42.854Z,37.40
2022-09-03T18:09:28.586Z,38.29
2022-09-03T18:12:22.122Z,39.35
2022-09-03T18:15:00.626Z,40.18
2022-09-03T18:17:35.056Z,40.50
2022-09-03T18:20:32.770Z,40.87
2022-09-03T18:23:17.783Z,41.33
2022-09-03T18:26:08.209Z,42.26
2022-09-03T18:29:25.964Z,43.07
2022-09-03T18:32:11.031Z,43.34
2022-09-03T18:34:57.218Z,44.80
2022-09-03T18:37:45.500Z,44.50
2022-09-03T18:40:41.369Z,45.30
2022-09-03T18:43:58.153Z,45.68
2022-09-03T18:48:01.686Z,45.75
2022-09-03T18:50:13.868Z,45.82
2022-09-03T18:53:18.221Z,45.70
2022-09-03T18:56:12.413Z,46.63
2022-09-03T18:59:09.941Z,47.83
2022-09-03T19:01:59.909Z,48.70
2022-09-03T19:04:56.177Z,48.44
2022-09-03T19:08:00.178Z,49.12
2022-09-03T19:11:01.955Z,49.73
2022-09-03T19:13:58.493Z,50.58
2022-09-03T19:17:24.973Z,52.51
2022-09-03T19:20:10.043Z,52.14
2022-09-03T19:22:59.902Z,52.46
2022-09-03T19:25:47.281Z,52.99
2022-09-03T19:28:34.565Z,53.86
2022-09-03T19:31:44.581Z,54.35
2022-09-03T19:34:47.132Z,54.68
2022-09-03T19:37:31.887Z,54.47
2022-09-03T19:40:35.611Z,55.08
2022-09-03T19:43:34.908Z,55.85
2022-09-03T19:46:41.734Z,55.72
2022-09-03T19:49:42.199Z,55.67
2022-09-03T19:52:33.257Z,55.42
2022-09-03T19:55:19.242Z,56.20
2022-09-03T19:58:26.132Z,56.30
2022-09-03T20:01:16.620Z,57.43
2022-09-03T20:04:01.651Z,56.96
2022-09-03T20:06:50.448Z,57.51
2022-09-03T20:09:39.302Z,58.09
2022-09-03T20:12:10.190Z,58.33
2022-09-03T20:14:38.211Z,58.64
2022-09-03T20:17:05.791Z,58.46
2022-09-03T20:19:51.181Z,59.24
2022-09-03T20:22:18.614Z,59.53
2022-09-03T20:25:05.064Z,59.82
2022-09-03T20:27:40.776Z,60.03
2022-09-03T20:30:13.654Z,60.47
2022-09-03T20:33:01.245Z,60.87
2022-09-03T20:35:37.211Z,61.60
2022-09-03T20:38:29.902Z,61.38
2022-09-03T20:41:31.381Z,61.69
2022-09-03T20:44:17.282Z,61.99
2022-09-03T20:47:21.332Z,61.76
2022-09-03T20:49:54.935Z,61.31
2022-09-03T20:52:46.550Z,62.33
2022-09-03T20:55:27.177Z,61.93
2022-09-03T20:58:25.182Z,62.69
2022-09-03T21:01:09.341Z,62.11
2022-09-03T21:04:11.396Z,62.48
2022-09-03T21:06:58.654Z,62.96
2022-09-03T21:09:38.203Z,62.74
2022-09-03T21:12:26.157Z,62.69
2022-09-03T21:15:05.975Z,62.69
2022-09-03T21:17:52.459Z,63.54
2022-09-03T21:20:42.722Z,63.70
2022-09-03T21:23:16.295Z,64.47
2022-09-03T21:25:49.915Z,64.24
2022-09-03T21:28:32.502Z,64.84
2022-09-03T21:31:15.814Z,65.40
2022-09-03T21:33:48.663Z,66.11
2022-09-03T21:36:22.342Z,66.06
2022-09-03T21:39:16.857Z,65.96
2022-09-03T21:41:50.577Z,66.01
2022-09-03T21:44:25.591Z,66.63
2022-09-03T21:47:00.669Z,66.18
2022-09-03T21:49:36.854Z,66.19
2022-09-03T21:52:09.805Z,66.09
2022-09-03T21:54:37.400Z,66.11
2022-09-03T21:57:26.155Z,66.08
2022-09-03T22:00:04.028Z,66.08
2022-09-03T22:02:33.195Z,65.82
2022-09-03T22:05:03.084Z,65.92
2022-09-03T22:07:53.236Z,65.40
2022-09-03T22:10:45.551Z,65.79
2022-09-03T22:13:21.766Z,65.67
2022-09-03T22:15:51.616Z,66.53
2022-09-03T22:18:29.051Z,66.77
2022-09-03T22:21:13.129Z,66.04
2022-09-03T22:24:19.006Z,65.33
2022-09-03T22:27:00.727Z,65.41
2022-09-03T22:29:31.304Z,65.04
2022-09-03T22:32:10.361Z,65.05
2022-09-03T22:34:59.356Z,65.09
2022-09-03T22:37:43.398Z,65.09
2022-09-03T22:40:25.751Z,65.29
2022-09-03T22:43:01.801Z,65.39
2022-09-03T22:45:55.859Z,65.71
2022-09-03T22:48:45.423Z,65.84
2022-09-03T22:51:13.678Z,65.85
2022-09-03T22:53:53.002Z,66.33
2022-09-03T22:56:22.876Z,66.41
2022-09-03T22:58:59.378Z,66.75
2022-09-03T23:01:36.191Z,67.24
2022-09-03T23:04:39.681Z,68.49
2022-09-03T23:07:52.674Z,69.45
2022-09-03T23:10:31.979Z,70.15
2022-09-03T23:13:11.946Z,70.97
2022-09-03T23:15:42.057Z,70.96
2022-09-03T23:18:17.551Z,71.31
2022-09-03T23:20:55.878Z,72.36
2022-09-03T23:23:30.766Z,73.11
2022-09-03T23:26:23.636Z,75.01
2022-09-03T23:29:00.418Z,75.18
2022-09-03T23:31:28.981Z,74.92
2022-09-03T23:33:57.281Z,74.57
2022-09-03T23:37:05.841Z,75.00
2022-09-03T23:39:55.765Z,75.45
2022-09-03T23:42:54.261Z,75.76
2022-09-03T23:45:48.230Z,75.73
2022-09-03T23:48:46.606Z,76.10
2022-09-03T23:51:19.853Z,76.41
2022-09-03T23:53:55.425Z,75.84
2022-09-03T23:56:25.778Z,76.27
2022-09-03T23:59:30.561Z,77.04
